createdAt,value
2022-11-16T06:02:51.585Z,15.33
2022-11-16T06:05:25.127Z,17.50
2022-11-16T06:07:54.355Z,17.20
2022-11-16T06:10:23.508Z,18.27
2022-11-16T06:12:53.976Z,15.40
2022-11-16T06:15:29.630Z,16.75
2022-11-16T06:17:59.208Z,16.70
2022-11-16T06:20:27.594Z,16.20
2022-11-16T06:23:17.816Z,17.20
2022-11-16T06:26:33.321Z,17.30
2022-11-16T06:29:54.716Z,15.03
2022-11-16T06:46:30.593Z,15.60
2022-11-16T06:52:26.675Z,15.63
2022-11-16T06:54:55.572Z,15.37
2022-11-16T07:00:27.927Z,14.47
2022-11-16T07:03:09.376Z,21.53
2022-11-16T07:06:09.972Z,11.87
2022-11-16T07:08:44.008Z,13.03
2022-11-16T07:11:21.551Z,15.20
2022-11-16T07:13:50.833Z,18.27
2022-11-16T07:16:21.262Z,16.90
2022-11-16T07:21:45.654Z,17.88
2022-11-16T07:24:19.113Z,16.67
2022-11-16T07:26:48.633Z,18.53
2022-11-16T07:29:21.870Z,18.30
2022-11-16T07:32:10.791Z,19.10
2022-11-16T07:35:02.929Z,19.97
2022-11-16T07:37:35.632Z,21.90
2022-11-16T07:40:06.157Z,21.90
2022-11-16T07:42:35.204Z,19.00
2022-11-16T07:45:27.012Z,21.40
2022-11-16T07:48:00.208Z,23.53
2022-11-16T07:51:05.748Z,22.70
2022-11-16T07:53:42.577Z,23.93
2022-11-16T07:56:12.181Z,21.70
2022-11-16T07:58:42.202Z,22.73
2022-11-16T08:01:12.576Z,22.67
2022-11-16T08:03:42.053Z,20.53
2022-11-16T08:06:14.486Z,17.87
2022-11-16T08:08:46.317Z,17.37
2022-11-16T08:11:15.267Z,20.20
2022-11-16T08:13:44.798Z,17.97
2022-11-16T08:16:15.266Z,16.43
2022-11-16T08:18:46.311Z,18.60
2022-11-16T08:21:18.846Z,21.53
2022-11-16T08:23:52.670Z,18.43
2022-11-16T08:26:25.685Z,22.87
2022-11-16T08:28:59.718Z,17.13
2022-11-16T08:31:31.982Z,22.30
2022-11-16T08:34:14.087Z,19.37
2022-11-16T08:36:46.032Z,13.73
2022-11-16T08:39:15.977Z,12.93
2022-11-16T08:41:44.557Z,10.80
2022-11-16T08:44:14.341Z,13.90
2022-11-16T08:46:46.598Z,11.40
2022-11-16T08:49:30.534Z,8.97
2022-11-16T08:51:59.760Z,15.37
2022-11-16T08:54:32.445Z,12.97
2022-11-16T08:57:00.957Z,12.37
2022-11-16T08:59:31.763Z,12.53
2022-11-16T09:02:06.657Z,14.77
2022-11-16T09:04:37.180Z,14.10
2022-11-16T09:07:06.054Z,9.83
2022-11-16T09:09:37.250Z,8.20
2022-11-16T09:12:06.391Z,7.93
2022-11-16T09:14:35.116Z,8.20
2022-11-16T09:17:03.881Z,4.43
2022-11-16T09:19:32.421Z,5.63
2022-11-16T09:22:01.153Z,9.00
2022-11-16T09:24:29.531Z,7.50
2022-11-16T09:27:01.406Z,10.10
2022-11-16T09:29:31.071Z,5.57
2022-11-16T09:31:59.702Z,10.15
2022-11-16T09:34:28.511Z,8.73
2022-11-16T09:36:57.251Z,4.73
2022-11-16T09:39:31.014Z,8.80
2022-11-16T09:42:15.107Z,5.90
2022-11-16T09:45:00.155Z,6.40
2022-11-16T09:47:41.436Z,5.00
2022-11-16T09:50:29.134Z,7.07
2022-11-16T09:53:01.209Z,4.87
2022-11-16T09:55:37.198Z,8.33
2022-11-16T09:58:16.355Z,5.63
2022-11-16T10:00:50.055Z,18.13
2022-11-16T10:03:19.409Z,5.10
2022-11-16T10:05:54.546Z,4.80
2022-11-16T10:08:30.703Z,8.00
2022-11-16T10:11:09.932Z,3.83
2022-11-16T10:13:47.927Z,5.40
2022-11-16T10:16:24.067Z,4.13
2022-11-16T10:18:59.822Z,7.87
2022-11-16T10:21:40.712Z,4.37
2022-11-16T10:24:26.603Z,6.57
2022-11-16T10:27:06.938Z,5.60
2022-11-16T10:29:49.659Z,8.40
2022-11-16T10:32:26.081Z,3.77
2022-11-16T10:34:55.968Z,7.20
2022-11-16T10:37:29.328Z,5.17
2022-11-16T10:39:57.542Z,5.17
2022-11-16T10:42:33.370Z,6.53
2022-11-16T10:45:14.565Z,5.83
2022-11-16T10:47:50.143Z,7.60
2022-11-16T10:50:33.033Z,7.80
2022-11-16T10:53:01.964Z,5.93
2022-11-16T10:55:30.846Z,8.30
2022-11-16T10:58:01.628Z,5.50
2022-11-16T11:00:40.223Z,6.30
2022-11-16T11:03:10.864Z,9.07
2022-11-16T11:05:49.398Z,5.30
2022-11-16T11:08:27.633Z,6.40
2022-11-16T11:11:03.204Z,16.67
2022-11-16T11:13:34.825Z,7.20
2022-11-16T11:16:19.369Z,9.50
2022-11-16T11:18:51.610Z,6.20
2022-11-16T11:21:24.448Z,9.60
2022-11-16T11:24:10.543Z,3.63
2022-11-16T11:26:50.463Z,8.30
2022-11-16T11:29:25.298Z,8.63
2022-11-16T11:32:02.233Z,5.80
2022-11-16T11:34:33.888Z,6.70
2022-11-16T11:37:03.744Z,3.67
2022-11-16T11:39:35.047Z,7.57
2022-11-16T11:42:24.552Z,8.70
2022-11-16T11:44:59.534Z,11.23
2022-11-16T11:48:02.965Z,5.90
2022-11-16T11:50:51.702Z,8.33
2022-11-16T11:53:38.986Z,4.40
2022-11-16T11:56:11.349Z,7.13
2022-11-16T11:58:41.940Z,4.43
2022-11-16T12:01:49.499Z,5.87
2022-11-16T12:04:45.028Z,9.87
2022-11-16T12:07:26.974Z,5.50
2022-11-16T12:10:03.212Z,6.10
2022-11-16T12:12:43.241Z,6.47
2022-11-16T12:15:34.282Z,3.50
2022-11-16T12:18:19.453Z,4.03
2022-11-16T12:20:58.679Z,5.30
2022-11-16T12:23:51.169Z,5.17
2022-11-16T12:26:29.072Z,4.00
2022-11-16T12:29:11.172Z,8.80
2022-11-16T12:31:59.258Z,10.53
2022-11-16T12:34:38.524Z,4.30
2022-11-16T12:37:16.474Z,7.00
2022-11-16T12:39:50.342Z,4.20
2022-11-16T12:42:38.792Z,11.47
2022-11-16T12:45:32.585Z,3.47
2022-11-16T12:48:19.268Z,5.27
2022-11-16T12:50:58.192Z,11.90
2022-11-16T12:53:48.460Z,5.77
2022-11-16T12:56:25.392Z,7.07
2022-11-16T12:59:15.271Z,8.47
2022-11-16T13:01:56.244Z,5.93
2022-11-16T13:04:34.275Z,7.60
2022-11-16T13:07:11.242Z,5.67
2022-11-16T13:09:44.896Z,1.73
2022-11-16T13:12:18.256Z,11.10
2022-11-16T13:14:50.008Z,8.00
2022-11-16T13:17:23.935Z,5.13
2022-11-16T13:20:14.258Z,4.73
2022-11-16T13:22:51.608Z,11.23
2022-11-16T13:25:27.330Z,6.57
2022-11-16T13:28:01.658Z,5.47
2022-11-16T13:30:42.241Z,3.77
2022-11-16T13:33:29.302Z,5.30
2022-11-16T13:35:58.607Z,4.63
2022-11-16T13:39:00.001Z,8.50
2022-11-16T13:41:32.918Z,5.80
2022-11-16T13:44:02.648Z,7.25
2022-11-16T13:46:55.407Z,6.43
2022-11-16T13:49:32.203Z,7.00
2022-11-16T13:52:22.178Z,6.20
2022-11-16T13:54:55.488Z,7.70
2022-11-16T13:57:28.786Z,7.77
2022-11-16T14:00:12.025Z,10.30
2022-11-16T14:02:42.413Z,9.03
2022-11-16T14:05:38.369Z,3.57
2022-11-16T14:08:40.539Z,3.93
2022-11-16T14:11:30.485Z,2.63
2022-11-16T14:14:02.306Z,6.63
2022-11-16T14:16:50.098Z,5.67
2022-11-16T14:19:57.100Z,5.07
2022-11-16T14:22:39.859Z,7.40
2022-11-16T14:25:33.304Z,5.03
2022-11-16T15:14:42.668Z,5.70
2022-11-16T15:18:17.923Z,6.60
2022-11-16T15:25:27.119Z,5.40
2022-11-16T15:27:57.206Z,3.37
2022-11-16T15:30:34.353Z,4.50
2022-11-16T15:33:05.194Z,4.17
2022-11-16T15:35:35.686Z,3.70
2022-11-16T16:12:53.853Z,6.10
2022-11-16T16:15:24.803Z,7.57
2022-11-16T16:18:12.690Z,5.53
2022-11-16T16:20:49.465Z,6.80
2022-11-16T16:23:26.798Z,4.80
2022-11-16T16:25:56.443Z,5.70
2022-11-16T16:28:24.742Z,4.70
2022-11-16T16:30:53.895Z,3.50
2022-11-16T16:33:28.499Z,7.90
2022-11-16T16:35:56.871Z,3.67
2022-11-16T16:38:25.012Z,6.13
2022-11-16T16:40:53.150Z,6.60
2022-11-16T16:43:22.681Z,5.00
2022-11-16T16:45:52.005Z,3.33
2022-11-16T16:48:22.977Z,6.67
2022-11-16T16:50:51.491Z,5.67
2022-11-16T16:53:20.441Z,3.57
2022-11-16T16:55:49.044Z,9.30
2022-11-16T16:58:17.606Z,9.30
2022-11-16T17:00:49.088Z,3.40
2022-11-16T17:03:17.355Z,2.87
2022-11-16T17:05:45.799Z,3.53
2022-11-16T17:08:13.945Z,5.40
2022-11-16T17:10:42.173Z,5.37
2022-11-16T17:13:11.111Z,5.90
2022-11-16T17:15:42.161Z,5.07
2022-11-16T17:18:11.717Z,8.60
2022-11-16T17:20:45.149Z,5.20
2022-11-16T17:23:13.530Z,6.77
2022-11-16T17:25:41.692Z,5.93
2022-11-16T17:28:11.408Z,10.57
2022-11-16T17:30:39.552Z,9.03
2022-11-16T17:33:58.615Z,7.05
2022-11-16T17:36:36.081Z,13.63
2022-11-16T17:39:06.176Z,8.43
2022-11-16T17:41:34.292Z,8.10
2022-11-16T17:44:02.390Z,4.80
2022-11-16T17:46:30.626Z,8.33
2022-11-16T17:49:01.640Z,5.10
2022-11-16T17:51:30.676Z,6.33
2022-11-16T17:54:00.368Z,4.10
2022-11-16T17:56:29.260Z,6.30
2022-11-16T17:58:58.487Z,9.70
2022-11-16T18:01:27.190Z,8.03
2022-11-16T18:03:55.539Z,9.37
2022-11-16T18:06:25.701Z,3.70
2022-11-16T18:08:54.245Z,5.20
2022-11-16T18:11:25.440Z,3.08
2022-11-16T18:13:54.963Z,5.03
2022-11-16T18:16:24.722Z,3.90
2022-11-16T18:18:58.426Z,10.93
2022-11-16T18:21:27.265Z,2.00
2022-11-16T18:23:55.635Z,11.80
2022-11-16T18:26:25.445Z,4.70
2022-11-16T18:28:54.298Z,7.07
2022-11-16T18:31:23.766Z,2.70
2022-11-16T18:33:52.824Z,3.63
2022-11-16T18:36:22.146Z,11.53
2022-11-16T18:38:50.314Z,3.40
2022-11-16T18:41:20.876Z,7.70
2022-11-16T18:43:52.100Z,3.27
2022-11-16T18:46:20.888Z,7.63
2022-11-16T18:48:52.041Z,8.80
2022-11-16T18:51:21.618Z,2.58
2022-11-16T18:53:58.335Z,6.17
2022-11-16T18:56:26.925Z,11.23
2022-11-16T18:58:55.157Z,5.73
2022-11-16T19:01:25.093Z,5.63
2022-11-16T19:03:53.949Z,4.80
2022-11-16T19:06:23.111Z,6.20
2022-11-16T19:08:56.348Z,10.83
2022-11-16T19:11:27.077Z,7.83
2022-11-16T19:13:56.982Z,2.50
2022-11-16T19:16:26.110Z,3.07
2022-11-16T19:18:54.384Z,5.00
2022-11-16T19:21:26.149Z,3.57
2022-11-16T19:23:56.448Z,7.53
2022-11-16T19:26:27.963Z,5.80
2022-11-16T19:28:56.543Z,11.37
2022-11-16T19:31:26.141Z,6.80
2022-11-16T19:34:04.120Z,4.03
2022-11-16T19:36:44.008Z,5.63
2022-11-16T19:39:26.156Z,3.90
2022-11-16T19:42:00.045Z,5.07
2022-11-16T19:44:35.812Z,2.83
2022-11-16T19:47:29.400Z,3.13
2022-11-16T19:50:00.117Z,5.03
2022-11-16T19:52:32.396Z,3.63
2022-11-16T19:55:04.346Z,2.30
2022-11-16T19:57:34.986Z,5.70
2022-11-16T20:00:04.119Z,2.90
2022-11-16T20:02:33.494Z,4.50
2022-11-16T20:05:01.743Z,4.90
2022-11-16T20:07:31.105Z,2.60
2022-11-16T20:09:59.508Z,6.67
2022-11-16T20:12:33.991Z,4.93
2022-11-16T20:15:03.199Z,4.67
2022-11-16T20:17:31.749Z,3.73
2022-11-16T20:20:00.364Z,3.70
2022-11-16T20:22:29.501Z,5.50
2022-11-16T20:24:57.787Z,5.63
2022-11-16T20:27:25.999Z,5.00
2022-11-16T20:29:55.491Z,1.97
2022-11-16T20:32:25.049Z,12.07
2022-11-16T20:34:55.932Z,4.87
2022-11-16T20:37:24.428Z,2.87
2022-11-16T20:39:57.362Z,1.57
2022-11-16T20:42:26.282Z,3.47
2022-11-16T20:44:55.854Z,6.10
2022-11-16T20:47:23.941Z,6.53
2022-11-16T20:49:52.060Z,3.87
2022-11-16T20:52:20.196Z,4.80
2022-11-16T20:54:48.332Z,4.63
2022-11-16T20:57:16.542Z,4.13
2022-11-16T20:59:44.696Z,2.93
2022-11-16T21:02:14.263Z,2.53
2022-11-16T21:04:42.420Z,7.27
2022-11-16T21:07:10.940Z,2.90
2022-11-16T21:09:53.156Z,4.40
2022-11-16T21:12:50.113Z,2.60
2022-11-16T21:15:29.687Z,4.40
2022-11-16T21:22:22.503Z,2.20
2022-11-16T21:24:51.188Z,8.47
2022-11-16T21:27:19.272Z,2.60
2022-11-16T21:29:47.413Z,3.83
2022-11-16T21:32:15.540Z,3.77
2022-11-16T21:34:45.664Z,1.70
2022-11-16T21:37:13.856Z,2.67
2022-11-16T21:39:41.974Z,11.67
2022-11-16T21:42:10.191Z,4.00
2022-11-16T21:44:42.810Z,5.83
2022-11-16T21:47:11.282Z,4.47
2022-11-16T21:49:59.292Z,4.20
2022-11-16T21:52:30.032Z,2.27
2022-11-16T21:55:01.587Z,3.83
2022-11-16T21:57:29.767Z,6.50
2022-11-16T21:59:57.884Z,5.43
2022-11-16T22:02:25.975Z,5.77
2022-11-16T22:05:11.589Z,4.17
2022-11-16T22:07:43.380Z,4.93
2022-11-16T22:10:13.144Z,2.00
2022-11-16T22:12:41.301Z,2.00
2022-11-16T22:15:10.257Z,5.13
2022-11-16T22:17:43.296Z,1.40
2022-11-16T22:20:12.203Z,4.07
2022-11-16T22:22:42.080Z,1.90
2022-11-16T22:25:10.716Z,2.80
2022-11-16T22:28:05.598Z,1.77
2022-11-16T22:30:27.503Z,1.33
2022-11-16T22:32:55.781Z,3.60
2022-11-16T22:35:23.892Z,2.40
2022-11-16T22:37:53.546Z,2.83
2022-11-16T22:40:21.639Z,2.47
2022-11-16T22:42:50.238Z,3.97
2022-11-16T22:45:20.895Z,4.37
2022-11-16T22:47:53.600Z,4.63
2022-11-16T22:50:24.229Z,5.03
2022-11-16T22:52:53.816Z,3.93
2022-11-16T22:55:22.140Z,2.67
2022-11-16T22:57:50.793Z,1.50
2022-11-16T23:00:19.988Z,2.27
2022-11-16T23:02:48.161Z,10.17
2022-11-16T23:05:16.516Z,3.37
2022-11-16T23:07:45.118Z,2.70
2022-11-16T23:10:15.578Z,4.73
2022-11-16T23:13:01.307Z,5.70
2022-11-16T23:15:46.708Z,3.43
2022-11-16T23:18:15.196Z,2.53
2022-11-16T23:21:00.844Z,3.03
2022-11-16T23:23:46.137Z,5.43
2022-11-16T23:26:38.521Z,2.70
2022-11-16T23:29:10.639Z,2.00
2022-11-16T23:31:39.169Z,3.23
2022-11-16T23:34:07.383Z,3.00
2022-11-16T23:36:35.562Z,3.20
2022-11-16T23:39:03.733Z,4.10
2022-11-16T23:42:05.157Z,3.73
2022-11-16T23:44:33.304Z,3.07
2022-11-16T23:47:01.499Z,2.80
2022-11-16T23:49:29.614Z,2.40
2022-11-16T23:51:57.914Z,4.93
2022-11-16T23:54:26.082Z,1.40
2022-11-16T23:56:55.683Z,3.13
2022-11-16T23:59:23.927Z,3.93
